sensor_id;sensor_type;location;lat;lon;timestamp;P1;durP1;ratioP1;P2;durP2;ratioP2
7545;SDS011;3814;51.454;12.616;2022-07-29T00:01:45;2.85;;;1.33;;
7545;SDS011;3814;51.454;12.616;2022-07-29T00:04:11;3.35;;;1.58;;
7545;SDS011;3814;51.454;12.616;2022-07-29T00:06:37;4.32;;;1.52;;
7545;SDS011;3814;51.454;12.616;2022-07-29T00:09:02;3.45;;;1.60;;
7545;SDS011;3814;51.454;12.616;2022-07-29T00:11:28;2.50;;;1.55;;
7545;SDS011;3814;51.454;12.616;2022-07-29T00:13:53;3.03;;;1.55;;
7545;SDS011;3814;51.454;12.616;2022-07-29T00:16:18;3.75;;;1.40;;
7545;SDS011;3814;51.454;12.616;2022-07-29T00:18:44;5.15;;;1.80;;
7545;SDS011;3814;51.454;12.616;2022-07-29T00:21:09;2.97;;;1.50;;
7545;SDS011;3814;51.454;12.616;2022-07-29T00:23:34;4.43;;;1.48;;
7545;SDS011;3814;51.454;12.616;2022-07-29T00:25:59;4.40;;;1.40;;
7545;SDS011;3814;51.454;12.616;2022-07-29T00:28:25;3.33;;;1.40;;
7545;SDS011;3814;51.454;12.616;2022-07-29T00:30:50;2.13;;;1.38;;
7545;SDS011;3814;51.454;12.616;2022-07-29T00:33:15;3.85;;;1.60;;
7545;SDS011;3814;51.454;12.616;2022-07-29T00:35:41;2.85;;;1.33;;
7545;SDS011;3814;51.454;12.616;2022-07-29T00:38:09;3.42;;;1.42;;
7545;SDS011;3814;51.454;12.616;2022-07-29T00:40:38;2.97;;;1.20;;
7545;SDS011;3814;51.454;12.616;2022-07-29T00:43:04;6.68;;;1.75;;
7545;SDS011;3814;51.454;12.616;2022-07-29T00:45:29;3.90;;;1.60;;
7545;SDS011;3814;51.454;12.616;2022-07-29T00:47:55;3.28;;;1.40;;
7545;SDS011;3814;51.454;12.616;2022-07-29T00:50:20;2.65;;;1.50;;
7545;SDS011;3814;51.454;12.616;2022-07-29T00:52:46;4.25;;;1.52;;
7545;SDS011;3814;51.454;12.616;2022-07-29T00:55:12;5.00;;;1.50;;
7545;SDS011;3814;51.454;12.616;2022-07-29T00:57:39;4.63;;;1.60;;
7545;SDS011;3814;51.454;12.616;2022-07-29T01:00:06;4.57;;;1.60;;
7545;SDS011;3814;51.454;12.616;2022-07-29T01:02:34;4.05;;;1.80;;
7545;SDS011;3814;51.454;12.616;2022-07-29T01:05:00;2.88;;;1.80;;
7545;SDS011;3814;51.454;12.616;2022-07-29T01:07:26;3.13;;;1.50;;
7545;SDS011;3814;51.454;12.616;2022-07-29T01:09:52;4.90;;;1.60;;
7545;SDS011;3814;51.454;12.616;2022-07-29T01:12:22;3.72;;;1.42;;
7545;SDS011;3814;51.454;12.616;2022-07-29T01:14:49;4.93;;;1.70;;
7545;SDS011;3814;51.454;12.616;2022-07-29T01:17:20;3.67;;;1.58;;
7545;SDS011;3814;51.454;12.616;2022-07-29T01:20:02;5.38;;;1.73;;
7545;SDS011;3814;51.454;12.616;2022-07-29T01:31:05;3.00;;;1.55;;
7545;SDS011;3814;51.454;12.616;2022-07-29T01:33:32;3.25;;;1.50;;
7545;SDS011;3814;51.454;12.616;2022-07-29T01:36:18;4.97;;;1.45;;
7545;SDS011;3814;51.454;12.616;2022-07-29T01:38:50;3.33;;;1.50;;
7545;SDS011;3814;51.454;12.616;2022-07-29T01:41:40;4.32;;;1.63;;
7545;SDS011;3814;51.454;12.616;2022-07-29T01:44:31;5.10;;;1.60;;
7545;SDS011;3814;51.454;12.616;2022-07-29T01:47:00;2.83;;;1.60;;
7545;SDS011;3814;51.454;12.616;2022-07-29T01:49:31;4.75;;;1.50;;
7545;SDS011;3814;51.454;12.616;2022-07-29T01:52:02;2.92;;;1.50;;
7545;SDS011;3814;51.454;12.616;2022-07-29T01:54:32;3.53;;;1.65;;
7545;SDS011;3814;51.454;12.616;2022-07-29T01:57:00;3.38;;;1.35;;
7545;SDS011;3814;51.454;12.616;2022-07-29T01:59:26;4.50;;;1.58;;
7545;SDS011;3814;51.454;12.616;2022-07-29T02:01:55;4.97;;;1.70;;
7545;SDS011;3814;51.454;12.616;2022-07-29T02:04:22;3.95;;;1.60;;
7545;SDS011;3814;51.454;12.616;2022-07-29T02:06:49;4.85;;;1.77;;
7545;SDS011;3814;51.454;12.616;2022-07-29T02:09:16;5.00;;;1.70;;
7545;SDS011;3814;51.454;12.616;2022-07-29T02:11:44;3.60;;;1.60;;
7545;SDS011;3814;51.454;12.616;2022-07-29T02:14:13;3.53;;;1.70;;
7545;SDS011;3814;51.454;12.616;2022-07-29T02:16:39;7.30;;;1.70;;
7545;SDS011;3814;51.454;12.616;2022-07-29T02:19:05;4.25;;;1.63;;
7545;SDS011;3814;51.454;12.616;2022-07-29T02:21:31;4.32;;;1.80;;
7545;SDS011;3814;51.454;12.616;2022-07-29T02:23:57;3.47;;;1.60;;
7545;SDS011;3814;51.454;12.616;2022-07-29T02:26:24;3.95;;;1.55;;
7545;SDS011;3814;51.454;12.616;2022-07-29T02:28:51;4.93;;;1.80;;
7545;SDS011;3814;51.454;12.616;2022-07-29T02:31:18;4.25;;;1.60;;
7545;SDS011;3814;51.454;12.616;2022-07-29T02:33:45;5.07;;;1.60;;
7545;SDS011;3814;51.454;12.616;2022-07-29T02:36:12;4.05;;;1.83;;
7545;SDS011;3814;51.454;12.616;2022-07-29T02:38:37;4.18;;;1.80;;
7545;SDS011;3814;51.454;12.616;2022-07-29T02:41:20;3.40;;;1.75;;
7545;SDS011;3814;51.454;12.616;2022-07-29T02:43:53;3.15;;;1.60;;
7545;SDS011;3814;51.454;12.616;2022-07-29T02:46:21;4.60;;;1.77;;
7545;SDS011;3814;51.454;12.616;2022-07-29T02:48:51;4.43;;;1.80;;
7545;SDS011;3814;51.454;12.616;2022-07-29T02:51:27;5.43;;;1.85;;
7545;SDS011;3814;51.454;12.616;2022-07-29T02:53:54;5.53;;;1.77;;
7545;SDS011;3814;51.454;12.616;2022-07-29T02:56:23;4.53;;;1.80;;
7545;SDS011;3814;51.454;12.616;2022-07-29T03:01:20;4.97;;;1.90;;
7545;SDS011;3814;51.454;12.616;2022-07-29T03:03:48;6.05;;;1.88;;
7545;SDS011;3814;51.454;12.616;2022-07-29T03:06:14;2.65;;;1.60;;
7545;SDS011;3814;51.454;12.616;2022-07-29T03:08:42;3.15;;;1.70;;
7545;SDS011;3814;51.454;12.616;2022-07-29T03:11:07;3.35;;;1.80;;
7545;SDS011;3814;51.454;12.616;2022-07-29T03:13:33;4.15;;;1.55;;
7545;SDS011;3814;51.454;12.616;2022-07-29T03:15:59;3.40;;;1.83;;
7545;SDS011;3814;51.454;12.616;2022-07-29T03:18:25;5.22;;;2.00;;
7545;SDS011;3814;51.454;12.616;2022-07-29T03:20:50;4.45;;;1.70;;
7545;SDS011;3814;51.454;12.616;2022-07-29T03:23:19;6.95;;;1.75;;
7545;SDS011;3814;51.454;12.616;2022-07-29T03:25:46;4.97;;;1.60;;
7545;SDS011;3814;51.454;12.616;2022-07-29T03:28:11;3.33;;;1.65;;
7545;SDS011;3814;51.454;12.616;2022-07-29T03:30:37;3.70;;;1.50;;
7545;SDS011;3814;51.454;12.616;2022-07-29T03:33:02;3.63;;;1.60;;
7545;SDS011;3814;51.454;12.616;2022-07-29T03:35:27;3.72;;;1.77;;
7545;SDS011;3814;51.454;12.616;2022-07-29T03:37:53;4.95;;;1.75;;
7545;SDS011;3814;51.454;12.616;2022-07-29T03:40:22;3.50;;;1.85;;
7545;SDS011;3814;51.454;12.616;2022-07-29T03:42:51;3.38;;;1.70;;
7545;SDS011;3814;51.454;12.616;2022-07-29T03:45:18;4.78;;;1.80;;
7545;SDS011;3814;51.454;12.616;2022-07-29T03:47:45;4.60;;;2.17;;
7545;SDS011;3814;51.454;12.616;2022-07-29T03:50:14;3.38;;;1.67;;
7545;SDS011;3814;51.454;12.616;2022-07-29T03:52:40;4.63;;;1.90;;
7545;SDS011;3814;51.454;12.616;2022-07-29T03:55:05;3.25;;;1.77;;
7545;SDS011;3814;51.454;12.616;2022-07-29T03:57:31;4.30;;;1.80;;
7545;SDS011;3814;51.454;12.616;2022-07-29T03:59:57;6.70;;;1.90;;
7545;SDS011;3814;51.454;12.616;2022-07-29T04:02:22;5.72;;;1.63;;
7545;SDS011;3814;51.454;12.616;2022-07-29T04:04:48;4.22;;;1.80;;
7545;SDS011;3814;51.454;12.616;2022-07-29T04:07:13;7.68;;;1.80;;
7545;SDS011;3814;51.454;12.616;2022-07-29T04:09:39;4.70;;;1.80;;
7545;SDS011;3814;51.454;12.616;2022-07-29T04:12:05;4.57;;;1.77;;
7545;SDS011;3814;51.454;12.616;2022-07-29T04:14:33;3.40;;;1.65;;
7545;SDS011;3814;51.454;12.616;2022-07-29T04:16:59;5.10;;;1.90;;
7545;SDS011;3814;51.454;12.616;2022-07-29T04:19:25;3.00;;;1.73;;
7545;SDS011;3814;51.454;12.616;2022-07-29T04:21:50;6.32;;;1.90;;
7545;SDS011;3814;51.454;12.616;2022-07-29T04:24:16;5.65;;;1.70;;
7545;SDS011;3814;51.454;12.616;2022-07-29T04:26:41;4.20;;;1.80;;
7545;SDS011;3814;51.454;12.616;2022-07-29T04:29:07;6.45;;;1.90;;
7545;SDS011;3814;51.454;12.616;2022-07-29T04:31:32;4.68;;;1.90;;
7545;SDS011;3814;51.454;12.616;2022-07-29T04:33:57;4.85;;;1.80;;
7545;SDS011;3814;51.454;12.616;2022-07-29T04:36:23;5.05;;;1.90;;
7545;SDS011;3814;51.454;12.616;2022-07-29T04:38:48;4.43;;;1.80;;
7545;SDS011;3814;51.454;12.616;2022-07-29T04:41:13;5.00;;;2.20;;
7545;SDS011;3814;51.454;12.616;2022-07-29T04:43:39;3.85;;;2.00;;
7545;SDS011;3814;51.454;12.616;2022-07-29T04:46:05;6.28;;;1.90;;
7545;SDS011;3814;51.454;12.616;2022-07-29T04:48:31;4.95;;;1.80;;
7545;SDS011;3814;51.454;12.616;2022-07-29T04:50:56;5.25;;;1.90;;
7545;SDS011;3814;51.454;12.616;2022-07-29T04:53:22;5.43;;;2.15;;
7545;SDS011;3814;51.454;12.616;2022-07-29T04:55:47;4.30;;;2.00;;
7545;SDS011;3814;51.454;12.616;2022-07-29T04:58:13;7.55;;;2.17;;
7545;SDS011;3814;51.454;12.616;2022-07-29T05:00:39;3.45;;;1.88;;
7545;SDS011;3814;51.454;12.616;2022-07-29T05:03:04;7.80;;;1.98;;
7545;SDS011;3814;51.454;12.616;2022-07-29T05:05:29;5.47;;;2.22;;
7545;SDS011;3814;51.454;12.616;2022-07-29T05:07:55;5.45;;;2.22;;
7545;SDS011;3814;51.454;12.616;2022-07-29T05:10:21;5.35;;;2.03;;
7545;SDS011;3814;51.454;12.616;2022-07-29T05:12:46;3.97;;;2.35;;
7545;SDS011;3814;51.454;12.616;2022-07-29T05:15:12;5.40;;;2.25;;
7545;SDS011;3814;51.454;12.616;2022-07-29T05:17:37;6.03;;;2.30;;
7545;SDS011;3814;51.454;12.616;2022-07-29T05:20:03;4.82;;;2.10;;
7545;SDS011;3814;51.454;12.616;2022-07-29T05:22:29;5.38;;;2.17;;
7545;SDS011;3814;51.454;12.616;2022-07-29T05:24:54;6.32;;;2.05;;
7545;SDS011;3814;51.454;12.616;2022-07-29T05:27:19;4.15;;;1.90;;
7545;SDS011;3814;51.454;12.616;2022-07-29T05:29:45;6.25;;;2.42;;
7545;SDS011;3814;51.454;12.616;2022-07-29T05:32:10;5.88;;;2.28;;
7545;SDS011;3814;51.454;12.616;2022-07-29T05:34:36;7.40;;;2.17;;
7545;SDS011;3814;51.454;12.616;2022-07-29T05:37:02;5.18;;;2.30;;
7545;SDS011;3814;51.454;12.616;2022-07-29T05:39:27;6.00;;;2.10;;
7545;SDS011;3814;51.454;12.616;2022-07-29T05:41:52;6.45;;;2.35;;
7545;SDS011;3814;51.454;12.616;2022-07-29T05:44:17;4.50;;;2.30;;
7545;SDS011;3814;51.454;12.616;2022-07-29T05:46:43;4.90;;;2.10;;
7545;SDS011;3814;51.454;12.616;2022-07-29T05:49:08;5.05;;;2.20;;
7545;SDS011;3814;51.454;12.616;2022-07-29T05:51:34;7.15;;;2.60;;
7545;SDS011;3814;51.454;12.616;2022-07-29T05:53:59;7.45;;;2.50;;
7545;SDS011;3814;51.454;12.616;2022-07-29T05:56:25;9.73;;;2.53;;
7545;SDS011;3814;51.454;12.616;2022-07-29T05:58:50;6.63;;;2.38;;
7545;SDS011;3814;51.454;12.616;2022-07-29T06:01:16;6.20;;;2.10;;
7545;SDS011;3814;51.454;12.616;2022-07-29T06:03:41;5.70;;;2.15;;
7545;SDS011;3814;51.454;12.616;2022-07-29T06:06:07;4.15;;;2.25;;
7545;SDS011;3814;51.454;12.616;2022-07-29T06:08:33;5.45;;;2.40;;
7545;SDS011;3814;51.454;12.616;2022-07-29T06:10:59;8.82;;;2.53;;
7545;SDS011;3814;51.454;12.616;2022-07-29T06:13:25;5.75;;;2.30;;
7545;SDS011;3814;51.454;12.616;2022-07-29T06:15:50;7.80;;;2.33;;
7545;SDS011;3814;51.454;12.616;2022-07-29T06:18:16;5.53;;;2.20;;
7545;SDS011;3814;51.454;12.616;2022-07-29T06:20:41;6.43;;;2.17;;
7545;SDS011;3814;51.454;12.616;2022-07-29T06:23:06;5.72;;;2.30;;
7545;SDS011;3814;51.454;12.616;2022-07-29T06:25:32;4.80;;;2.08;;
7545;SDS011;3814;51.454;12.616;2022-07-29T06:27:59;6.05;;;2.20;;
7545;SDS011;3814;51.454;12.616;2022-07-29T06:30:24;4.15;;;2.17;;
7545;SDS011;3814;51.454;12.616;2022-07-29T06:32:50;5.03;;;2.40;;
7545;SDS011;3814;51.454;12.616;2022-07-29T06:35:15;6.18;;;2.47;;
7545;SDS011;3814;51.454;12.616;2022-07-29T06:37:40;6.70;;;2.60;;
7545;SDS011;3814;51.454;12.616;2022-07-29T06:40:06;6.35;;;2.30;;
7545;SDS011;3814;51.454;12.616;2022-07-29T06:42:50;6.28;;;2.35;;
7545;SDS011;3814;51.454;12.616;2022-07-29T06:45:15;8.27;;;2.50;;
7545;SDS011;3814;51.454;12.616;2022-07-29T06:47:41;4.07;;;2.20;;
7545;SDS011;3814;51.454;12.616;2022-07-29T06:50:06;8.57;;;2.60;;
7545;SDS011;3814;51.454;12.616;2022-07-29T06:52:32;4.78;;;2.70;;
7545;SDS011;3814;51.454;12.616;2022-07-29T06:54:57;7.72;;;2.70;;
7545;SDS011;3814;51.454;12.616;2022-07-29T06:57:24;5.68;;;2.45;;
7545;SDS011;3814;51.454;12.616;2022-07-29T06:59:49;7.38;;;2.28;;
7545;SDS011;3814;51.454;12.616;2022-07-29T07:02:14;9.18;;;2.78;;
7545;SDS011;3814;51.454;12.616;2022-07-29T07:04:40;5.32;;;2.53;;
7545;SDS011;3814;51.454;12.616;2022-07-29T07:07:05;7.45;;;3.00;;
7545;SDS011;3814;51.454;12.616;2022-07-29T07:09:30;6.65;;;2.70;;
7545;SDS011;3814;51.454;12.616;2022-07-29T07:11:56;9.80;;;3.10;;
7545;SDS011;3814;51.454;12.616;2022-07-29T07:14:21;6.85;;;3.00;;
7545;SDS011;3814;51.454;12.616;2022-07-29T07:16:47;6.47;;;2.90;;
7545;SDS011;3814;51.454;12.616;2022-07-29T07:19:12;9.60;;;3.08;;
7545;SDS011;3814;51.454;12.616;2022-07-29T07:21:37;8.73;;;3.22;;
7545;SDS011;3814;51.454;12.616;2022-07-29T07:24:03;8.80;;;2.92;;
7545;SDS011;3814;51.454;12.616;2022-07-29T07:26:28;7.13;;;2.90;;
7545;SDS011;3814;51.454;12.616;2022-07-29T07:28:54;6.05;;;2.80;;
7545;SDS011;3814;51.454;12.616;2022-07-29T07:31:19;8.02;;;3.10;;
7545;SDS011;3814;51.454;12.616;2022-07-29T07:33:44;8.23;;;3.20;;
7545;SDS011;3814;51.454;12.616;2022-07-29T07:36:10;7.60;;;2.95;;
7545;SDS011;3814;51.454;12.616;2022-07-29T07:38:35;5.30;;;2.50;;
7545;SDS011;3814;51.454;12.616;2022-07-29T07:41:00;6.32;;;2.70;;
7545;SDS011;3814;51.454;12.616;2022-07-29T07:43:26;10.70;;;3.10;;
7545;SDS011;3814;51.454;12.616;2022-07-29T07:45:51;5.45;;;2.75;;
7545;SDS011;3814;51.454;12.616;2022-07-29T07:48:16;6.53;;;2.90;;
7545;SDS011;3814;51.454;12.616;2022-07-29T07:50:42;5.93;;;2.72;;
7545;SDS011;3814;51.454;12.616;2022-07-29T07:53:08;7.13;;;2.67;;
7545;SDS011;3814;51.454;12.616;2022-07-29T07:55:33;7.18;;;2.78;;
7545;SDS011;3814;51.454;12.616;2022-07-29T07:58:04;9.80;;;2.67;;
7545;SDS011;3814;51.454;12.616;2022-07-29T08:00:29;5.28;;;2.42;;
7545;SDS011;3814;51.454;12.616;2022-07-29T08:02:55;8.82;;;2.83;;
7545;SDS011;3814;51.454;12.616;2022-07-29T08:05:20;6.47;;;2.80;;
7545;SDS011;3814;51.454;12.616;2022-07-29T08:07:46;7.22;;;2.90;;
7545;SDS011;3814;51.454;12.616;2022-07-29T08:10:13;5.93;;;2.70;;
7545;SDS011;3814;51.454;12.616;2022-07-29T08:12:39;5.78;;;2.78;;
7545;SDS011;3814;51.454;12.616;2022-07-29T08:15:04;8.07;;;3.03;;
7545;SDS011;3814;51.454;12.616;2022-07-29T08:17:32;7.30;;;2.75;;
7545;SDS011;3814;51.454;12.616;2022-07-29T08:19:57;10.75;;;3.00;;
7545;SDS011;3814;51.454;12.616;2022-07-29T08:22:23;6.30;;;2.72;;
7545;SDS011;3814;51.454;12.616;2022-07-29T08:24:48;8.85;;;2.83;;
7545;SDS011;3814;51.454;12.616;2022-07-29T08:27:21;6.53;;;2.90;;
7545;SDS011;3814;51.454;12.616;2022-07-29T08:29:46;4.93;;;2.60;;
7545;SDS011;3814;51.454;12.616;2022-07-29T08:32:12;6.00;;;2.90;;
7545;SDS011;3814;51.454;12.616;2022-07-29T08:34:37;8.05;;;2.88;;
7545;SDS011;3814;51.454;12.616;2022-07-29T08:37:02;5.72;;;2.92;;
7545;SDS011;3814;51.454;12.616;2022-07-29T08:39:28;7.15;;;3.17;;
7545;SDS011;3814;51.454;12.616;2022-07-29T08:41:53;15.77;;;3.00;;
7545;SDS011;3814;51.454;12.616;2022-07-29T08:44:19;7.22;;;2.97;;
7545;SDS011;3814;51.454;12.616;2022-07-29T08:46:46;5.43;;;3.00;;
7545;SDS011;3814;51.454;12.616;2022-07-29T08:49:12;8.73;;;3.10;;
7545;SDS011;3814;51.454;12.616;2022-07-29T08:51:39;6.25;;;3.00;;
7545;SDS011;3814;51.454;12.616;2022-07-29T08:54:05;9.05;;;3.03;;
7545;SDS011;3814;51.454;12.616;2022-07-29T08:56:30;9.82;;;3.25;;
7545;SDS011;3814;51.454;12.616;2022-07-29T08:58:57;9.60;;;2.80;;
7545;SDS011;3814;51.454;12.616;2022-07-29T09:01:24;6.60;;;3.10;;
7545;SDS011;3814;51.454;12.616;2022-07-29T09:03:50;5.97;;;2.95;;
7545;SDS011;3814;51.454;12.616;2022-07-29T09:06:20;6.10;;;2.75;;
7545;SDS011;3814;51.454;12.616;2022-07-29T09:08:46;6.88;;;3.10;;
7545;SDS011;3814;51.454;12.616;2022-07-29T09:11:12;9.50;;;3.10;;
7545;SDS011;3814;51.454;12.616;2022-07-29T09:13:38;8.40;;;3.17;;
7545;SDS011;3814;51.454;12.616;2022-07-29T09:16:04;7.15;;;3.15;;
7545;SDS011;3814;51.454;12.616;2022-07-29T09:18:33;7.43;;;2.95;;
7545;SDS011;3814;51.454;12.616;2022-07-29T09:21:02;10.75;;;3.42;;
7545;SDS011;3814;51.454;12.616;2022-07-29T09:24:04;9.75;;;3.13;;
7545;SDS011;3814;51.454;12.616;2022-07-29T09:26:36;7.60;;;3.00;;
7545;SDS011;3814;51.454;12.616;2022-07-29T09:29:13;9.05;;;3.47;;
7545;SDS011;3814;51.454;12.616;2022-07-29T09:31:43;8.50;;;3.28;;
7545;SDS011;3814;51.454;12.616;2022-07-29T09:34:11;5.93;;;3.28;;
7545;SDS011;3814;51.454;12.616;2022-07-29T09:36:40;8.95;;;3.53;;
7545;SDS011;3814;51.454;12.616;2022-07-29T09:39:07;11.65;;;3.88;;
7545;SDS011;3814;51.454;12.616;2022-07-29T09:44:13;9.70;;;3.78;;
7545;SDS011;3814;51.454;12.616;2022-07-29T09:46:39;7.07;;;3.83;;
7545;SDS011;3814;51.454;12.616;2022-07-29T09:49:10;8.77;;;3.85;;
7545;SDS011;3814;51.454;12.616;2022-07-29T09:51:37;8.68;;;3.85;;
7545;SDS011;3814;51.454;12.616;2022-07-29T09:54:20;13.68;;;3.80;;
7545;SDS011;3814;51.454;12.616;2022-07-29T09:56:47;9.10;;;3.70;;
7545;SDS011;3814;51.454;12.616;2022-07-29T09:59:13;8.25;;;3.60;;
7545;SDS011;3814;51.454;12.616;2022-07-29T10:01:38;10.57;;;3.72;;
7545;SDS011;3814;51.454;12.616;2022-07-29T10:04:03;8.18;;;3.67;;
7545;SDS011;3814;51.454;12.616;2022-07-29T10:06:29;6.90;;;3.45;;
7545;SDS011;3814;51.454;12.616;2022-07-29T10:08:54;11.60;;;3.38;;
7545;SDS011;3814;51.454;12.616;2022-07-29T10:11:19;10.00;;;3.60;;
7545;SDS011;3814;51.454;12.616;2022-07-29T10:13:46;10.38;;;3.50;;
7545;SDS011;3814;51.454;12.616;2022-07-29T10:16:12;8.40;;;3.30;;
7545;SDS011;3814;51.454;12.616;2022-07-29T10:18:39;7.93;;;3.42;;
7545;SDS011;3814;51.454;12.616;2022-07-29T10:21:05;7.65;;;3.50;;
7545;SDS011;3814;51.454;12.616;2022-07-29T10:23:30;10.80;;;3.90;;
7545;SDS011;3814;51.454;12.616;2022-07-29T10:25:56;11.98;;;3.70;;
7545;SDS011;3814;51.454;12.616;2022-07-29T10:28:22;7.70;;;3.53;;
7545;SDS011;3814;51.454;12.616;2022-07-29T10:30:48;7.65;;;3.17;;
7545;SDS011;3814;51.454;12.616;2022-07-29T10:33:18;6.65;;;3.40;;
7545;SDS011;3814;51.454;12.616;2022-07-29T10:36:07;9.40;;;3.40;;
7545;SDS011;3814;51.454;12.616;2022-07-29T10:38:44;7.53;;;3.40;;
7545;SDS011;3814;51.454;12.616;2022-07-29T10:41:20;10.05;;;3.13;;
7545;SDS011;3814;51.454;12.616;2022-07-29T10:43:51;10.82;;;3.40;;
7545;SDS011;3814;51.454;12.616;2022-07-29T10:46:21;7.22;;;3.13;;
7545;SDS011;3814;51.454;12.616;2022-07-29T10:54:36;6.15;;;3.00;;
7545;SDS011;3814;51.454;12.616;2022-07-29T10:57:37;6.63;;;3.20;;
7545;SDS011;3814;51.454;12.616;2022-07-29T11:05:05;8.55;;;3.10;;
7545;SDS011;3814;51.454;12.616;2022-07-29T11:07:38;6.10;;;2.70;;
7545;SDS011;3814;51.454;12.616;2022-07-29T11:10:19;5.35;;;2.88;;
7545;SDS011;3814;51.454;12.616;2022-07-29T11:12:45;5.88;;;2.80;;
7545;SDS011;3814;51.454;12.616;2022-07-29T11:15:12;7.20;;;2.90;;
7545;SDS011;3814;51.454;12.616;2022-07-29T11:20:37;7.03;;;2.65;;
7545;SDS011;3814;51.454;12.616;2022-07-29T11:23:20;5.68;;;2.72;;
7545;SDS011;3814;51.454;12.616;2022-07-29T11:34:16;7.72;;;2.90;;
7545;SDS011;3814;51.454;12.616;2022-07-29T11:39:42;7.20;;;2.90;;
7545;SDS011;3814;51.454;12.616;2022-07-29T11:47:23;6.10;;;2.67;;
7545;SDS011;3814;51.454;12.616;2022-07-29T11:49:52;7.60;;;3.25;;
7545;SDS011;3814;51.454;12.616;2022-07-29T11:52:18;5.93;;;2.40;;
7545;SDS011;3814;51.454;12.616;2022-07-29T11:54:44;7.57;;;2.70;;
7545;SDS011;3814;51.454;12.616;2022-07-29T11:57:18;8.10;;;2.65;;
7545;SDS011;3814;51.454;12.616;2022-07-29T11:59:44;5.32;;;2.60;;
7545;SDS011;3814;51.454;12.616;2022-07-29T12:02:11;3.42;;;2.40;;
7545;SDS011;3814;51.454;12.616;2022-07-29T12:04:54;8.35;;;2.80;;
7545;SDS011;3814;51.454;12.616;2022-07-29T12:07:31;4.95;;;2.42;;
7545;SDS011;3814;51.454;12.616;2022-07-29T12:09:57;5.60;;;2.70;;
7545;SDS011;3814;51.454;12.616;2022-07-29T12:12:23;6.47;;;2.80;;
7545;SDS011;3814;51.454;12.616;2022-07-29T12:14:48;8.65;;;2.88;;
7545;SDS011;3814;51.454;12.616;2022-07-29T12:17:30;8.48;;;3.00;;
7545;SDS011;3814;51.454;12.616;2022-07-29T12:19:59;6.95;;;3.00;;
7545;SDS011;3814;51.454;12.616;2022-07-29T12:22:31;5.38;;;2.70;;
7545;SDS011;3814;51.454;12.616;2022-07-29T12:25:02;6.35;;;3.08;;
7545;SDS011;3814;51.454;12.616;2022-07-29T12:27:28;5.78;;;2.80;;
7545;SDS011;3814;51.454;12.616;2022-07-29T12:29:58;12.35;;;2.92;;
7545;SDS011;3814;51.454;12.616;2022-07-29T12:35:12;4.05;;;2.70;;
7545;SDS011;3814;51.454;12.616;2022-07-29T12:37:39;7.93;;;2.90;;
7545;SDS011;3814;51.454;12.616;2022-07-29T12:40:06;8.18;;;2.67;;
7545;SDS011;3814;51.454;12.616;2022-07-29T12:42:33;6.20;;;2.80;;
7545;SDS011;3814;51.454;12.616;2022-07-29T12:44:58;5.15;;;2.78;;
7545;SDS011;3814;51.454;12.616;2022-07-29T12:47:24;5.80;;;2.45;;
7545;SDS011;3814;51.454;12.616;2022-07-29T12:49:50;3.40;;;2.60;;
7545;SDS011;3814;51.454;12.616;2022-07-29T12:52:32;5.57;;;2.47;;
7545;SDS011;3814;51.454;12.616;2022-07-29T12:54:59;6.65;;;2.90;;
7545;SDS011;3814;51.454;12.616;2022-07-29T12:57:24;5.45;;;3.22;;
7545;SDS011;3814;51.454;12.616;2022-07-29T13:00:00;8.13;;;3.03;;
7545;SDS011;3814;51.454;12.616;2022-07-29T13:02:34;6.30;;;2.90;;
7545;SDS011;3814;51.454;12.616;2022-07-29T13:04:59;5.70;;;3.33;;
7545;SDS011;3814;51.454;12.616;2022-07-29T13:07:26;8.57;;;2.92;;
7545;SDS011;3814;51.454;12.616;2022-07-29T13:12:19;4.88;;;2.70;;
7545;SDS011;3814;51.454;12.616;2022-07-29T13:14:46;4.90;;;2.85;;
7545;SDS011;3814;51.454;12.616;2022-07-29T13:17:13;7.90;;;3.05;;
7545;SDS011;3814;51.454;12.616;2022-07-29T13:22:30;7.07;;;3.25;;
7545;SDS011;3814;51.454;12.616;2022-07-29T13:24:57;10.50;;;3.22;;
7545;SDS011;3814;51.454;12.616;2022-07-29T13:27:25;5.95;;;3.10;;
7545;SDS011;3814;51.454;12.616;2022-07-29T13:29:53;4.53;;;3.30;;
7545;SDS011;3814;51.454;12.616;2022-07-29T13:32:21;4.70;;;3.30;;
7545;SDS011;3814;51.454;12.616;2022-07-29T13:34:47;9.00;;;3.50;;
7545;SDS011;3814;51.454;12.616;2022-07-29T13:37:13;6.05;;;3.22;;
7545;SDS011;3814;51.454;12.616;2022-07-29T13:39:38;5.05;;;3.45;;
7545;SDS011;3814;51.454;12.616;2022-07-29T13:42:04;4.95;;;3.13;;
7545;SDS011;3814;51.454;12.616;2022-07-29T13:44:31;6.32;;;3.58;;
7545;SDS011;3814;51.454;12.616;2022-07-29T13:46:56;5.32;;;3.00;;
7545;SDS011;3814;51.454;12.616;2022-07-29T13:49:23;8.15;;;3.58;;
7545;SDS011;3814;51.454;12.616;2022-07-29T13:51:49;9.40;;;3.75;;
7545;SDS011;3814;51.454;12.616;2022-07-29T13:54:14;7.78;;;3.60;;
7545;SDS011;3814;51.454;12.616;2022-07-29T13:56:40;11.35;;;3.65;;
7545;SDS011;3814;51.454;12.616;2022-07-29T13:59:05;6.55;;;3.60;;
7545;SDS011;3814;51.454;12.616;2022-07-29T14:01:31;6.80;;;3.10;;
7545;SDS011;3814;51.454;12.616;2022-07-29T14:03:56;8.90;;;2.97;;
7545;SDS011;3814;51.454;12.616;2022-07-29T14:06:21;6.05;;;3.13;;
7545;SDS011;3814;51.454;12.616;2022-07-29T14:08:47;6.28;;;3.00;;
7545;SDS011;3814;51.454;12.616;2022-07-29T14:11:12;7.60;;;2.70;;
7545;SDS011;3814;51.454;12.616;2022-07-29T14:13:37;5.55;;;3.08;;
7545;SDS011;3814;51.454;12.616;2022-07-29T14:16:03;3.63;;;2.75;;
7545;SDS011;3814;51.454;12.616;2022-07-29T14:18:28;7.50;;;3.25;;
7545;SDS011;3814;51.454;12.616;2022-07-29T14:20:53;4.75;;;3.20;;
7545;SDS011;3814;51.454;12.616;2022-07-29T14:23:19;4.82;;;3.28;;
7545;SDS011;3814;51.454;12.616;2022-07-29T14:25:44;6.22;;;3.30;;
7545;SDS011;3814;51.454;12.616;2022-07-29T14:28:09;8.25;;;3.25;;
7545;SDS011;3814;51.454;12.616;2022-07-29T14:30:35;7.45;;;3.22;;
7545;SDS011;3814;51.454;12.616;2022-07-29T14:33:00;7.75;;;3.08;;
7545;SDS011;3814;51.454;12.616;2022-07-29T14:35:26;4.25;;;2.90;;
7545;SDS011;3814;51.454;12.616;2022-07-29T14:37:51;6.75;;;2.70;;
7545;SDS011;3814;51.454;12.616;2022-07-29T14:40:16;6.82;;;3.10;;
7545;SDS011;3814;51.454;12.616;2022-07-29T14:42:42;5.57;;;2.80;;
7545;SDS011;3814;51.454;12.616;2022-07-29T14:45:08;5.30;;;2.95;;
7545;SDS011;3814;51.454;12.616;2022-07-29T14:47:33;9.23;;;3.20;;
7545;SDS011;3814;51.454;12.616;2022-07-29T14:49:59;4.40;;;3.30;;
7545;SDS011;3814;51.454;12.616;2022-07-29T14:52:24;4.30;;;3.10;;
7545;SDS011;3814;51.454;12.616;2022-07-29T14:54:49;6.32;;;3.25;;
7545;SDS011;3814;51.454;12.616;2022-07-29T14:57:15;6.97;;;3.08;;
7545;SDS011;3814;51.454;12.616;2022-07-29T14:59:41;6.35;;;3.53;;
7545;SDS011;3814;51.454;12.616;2022-07-29T15:02:06;6.15;;;3.88;;
7545;SDS011;3814;51.454;12.616;2022-07-29T15:04:31;8.65;;;3.60;;
7545;SDS011;3814;51.454;12.616;2022-07-29T15:06:57;5.88;;;3.40;;
7545;SDS011;3814;51.454;12.616;2022-07-29T15:09:22;8.40;;;3.55;;
7545;SDS011;3814;51.454;12.616;2022-07-29T15:11:48;6.65;;;3.50;;
7545;SDS011;3814;51.454;12.616;2022-07-29T15:14:13;6.78;;;3.40;;
7545;SDS011;3814;51.454;12.616;2022-07-29T15:16:39;7.35;;;3.90;;
7545;SDS011;3814;51.454;12.616;2022-07-29T15:19:05;7.63;;;3.70;;
7545;SDS011;3814;51.454;12.616;2022-07-29T15:21:30;5.22;;;3.60;;
7545;SDS011;3814;51.454;12.616;2022-07-29T15:23:56;7.82;;;4.00;;
7545;SDS011;3814;51.454;12.616;2022-07-29T15:26:21;7.30;;;3.90;;
7545;SDS011;3814;51.454;12.616;2022-07-29T15:28:46;5.78;;;3.90;;
7545;SDS011;3814;51.454;12.616;2022-07-29T15:31:12;7.22;;;3.88;;
7545;SDS011;3814;51.454;12.616;2022-07-29T15:33:37;6.75;;;4.00;;
7545;SDS011;3814;51.454;12.616;2022-07-29T15:36:02;7.97;;;4.15;;
7545;SDS011;3814;51.454;12.616;2022-07-29T15:38:29;10.60;;;3.75;;
7545;SDS011;3814;51.454;12.616;2022-07-29T15:40:55;9.30;;;4.00;;
7545;SDS011;3814;51.454;12.616;2022-07-29T15:43:20;10.73;;;4.43;;
7545;SDS011;3814;51.454;12.616;2022-07-29T15:45:46;7.60;;;3.70;;
7545;SDS011;3814;51.454;12.616;2022-07-29T15:48:30;7.28;;;4.20;;
7545;SDS011;3814;51.454;12.616;2022-07-29T15:50:56;6.70;;;3.85;;
7545;SDS011;3814;51.454;12.616;2022-07-29T15:53:21;6.93;;;4.05;;